sensor_id;sensor_type;location;lat;lon;timestamp;pressure;altitude;pressure_sealevel;temperature;humidity
20630;BME280;17386;43.846;25.950;2023-02-28T00:00:51;102244.09;;;4.80;100.00
20630;BME280;17386;43.846;25.950;2023-02-28T00:03:17;102256.28;;;4.71;100.00
20630;BME280;17386;43.846;25.950;2023-02-28T00:05:42;102266.00;;;4.75;100.00
20630;BME280;17386;43.846;25.950;2023-02-28T00:08:08;102262.44;;;4.70;100.00
20630;BME280;17386;43.846;25.950;2023-02-28T00:10:34;102275.69;;;4.77;100.00
20630;BME280;17386;43.846;25.950;2023-02-28T00:13:03;102266.97;;;4.81;100.00
20630;BME280;17386;43.846;25.950;2023-02-28T00:15:29;102282.72;;;4.78;100.00
20630;BME280;17386;43.846;25.950;2023-02-28T00:17:54;102287.94;;;4.74;100.00
20630;BME280;17386;43.846;25.950;2023-02-28T00:20:20;102294.19;;;4.85;100.00
20630;BME280;17386;43.846;25.950;2023-02-28T00:22:48;102290.69;;;4.86;100.00
20630;BME280;17386;43.846;25.950;2023-02-28T00:25:18;102280.16;;;4.86;100.00
20630;BME280;17386;43.846;25.950;2023-02-28T00:27:44;102269.63;;;4.84;100.00
20630;BME280;17386;43.846;25.950;2023-02-28T00:30:13;102280.31;;;4.95;100.00
20630;BME280;17386;43.846;25.950;2023-02-28T00:32:39;102282.06;;;4.96;100.00
20630;BME280;17386;43.846;25.950;2023-02-28T00:35:06;102292.59;;;4.96;100.00
20630;BME280;17386;43.846;25.950;2023-02-28T00:37:31;102284.69;;;4.96;100.00
20630;BME280;17386;43.846;25.950;2023-02-28T00:39:57;102305.69;;;4.90;100.00
20630;BME280;17386;43.846;25.950;2023-02-28T00:42:23;102301.38;;;4.95;100.00
20630;BME280;17386;43.846;25.950;2023-02-28T00:44:49;102309.22;;;4.92;100.00
20630;BME280;17386;43.846;25.950;2023-02-28T00:47:14;102311.94;;;4.98;100.00
20630;BME280;17386;43.846;25.950;2023-02-28T00:49:40;102313.69;;;4.99;100.00
20630;BME280;17386;43.846;25.950;2023-02-28T00:52:05;102304.00;;;4.95;100.00
20630;BME280;17386;43.846;25.950;2023-02-28T00:54:31;102308.44;;;4.99;100.00
20630;BME280;17386;43.846;25.950;2023-02-28T00:56:56;102313.72;;;5.01;100.00
20630;BME280;17386;43.846;25.950;2023-02-28T00:59:21;102312.03;;;5.06;100.00
20630;BME280;17386;43.846;25.950;2023-02-28T01:01:47;102318.25;;;5.11;100.00
20630;BME280;17386;43.846;25.950;2023-02-28T01:04:13;102306.75;;;5.04;100.00
20630;BME280;17386;43.846;25.950;2023-02-28T01:06:39;102313.03;;;5.17;100.00
20630;BME280;17386;43.846;25.950;2023-02-28T01:09:05;102311.16;;;5.07;100.00
20630;BME280;17386;43.846;25.950;2023-02-28T01:11:32;102314.63;;;5.03;100.00
20630;BME280;17386;43.846;25.950;2023-02-28T01:13:58;102310.28;;;5.06;100.00
20630;BME280;17386;43.846;25.950;2023-02-28T01:16:25;102313.69;;;4.99;100.00
20630;BME280;17386;43.846;25.950;2023-02-28T01:18:50;102315.44;;;4.97;100.00
20630;BME280;17386;43.846;25.950;2023-02-28T01:21:18;102327.72;;;4.97;100.00
20630;BME280;17386;43.846;25.950;2023-02-28T01:23:44;102328.72;;;5.06;100.00
20630;BME280;17386;43.846;25.950;2023-02-28T01:26:17;102329.41;;;4.93;100.00
20630;BME280;17386;43.846;25.950;2023-02-28T01:28:43;102330.09;;;4.77;100.00
20630;BME280;17386;43.846;25.950;2023-02-28T01:31:09;102340.84;;;4.93;100.00
20630;BME280;17386;43.846;25.950;2023-02-28T01:33:36;102327.75;;;4.98;100.00
20630;BME280;17386;43.846;25.950;2023-02-28T01:36:07;102343.44;;;4.89;100.00
20630;BME280;17386;43.846;25.950;2023-02-28T01:38:34;102331.16;;;4.91;100.00
20630;BME280;17386;43.846;25.950;2023-02-28T01:41:00;102335.56;;;4.93;100.00
20630;BME280;17386;43.846;25.950;2023-02-28T01:43:31;102368.13;;;4.97;100.00
20630;BME280;17386;43.846;25.950;2023-02-28T01:45:58;102374.19;;;4.93;100.00
20630;BME280;17386;43.846;25.950;2023-02-28T01:48:32;102378.56;;;4.91;100.00
20630;BME280;17386;43.846;25.950;2023-02-28T01:51:05;102379.47;;;4.93;100.00
20630;BME280;17386;43.846;25.950;2023-02-28T01:53:37;102387.34;;;4.93;100.00
20630;BME280;17386;43.846;25.950;2023-02-28T01:56:06;102391.72;;;4.89;100.00
20630;BME280;17386;43.846;25.950;2023-02-28T01:58:32;102390.06;;;4.98;100.00
20630;BME280;17386;43.846;25.950;2023-02-28T02:00:58;102380.53;;;5.07;100.00
20630;BME280;17386;43.846;25.950;2023-02-28T02:03:23;102376.19;;;5.09;100.00
20630;BME280;17386;43.846;25.950;2023-02-28T02:05:49;102379.63;;;5.07;100.00
20630;BME280;17386;43.846;25.950;2023-02-28T02:08:19;102367.16;;;4.93;100.00
20630;BME280;17386;43.846;25.950;2023-02-28T02:21:40;102319.25;;;4.54;100.00
20630;BME280;17386;43.846;25.950;2023-02-28T02:27:06;102337.69;;;4.54;100.00
20630;BME280;17386;43.846;25.950;2023-02-28T02:35:17;102348.25;;;4.58;100.00
20630;BME280;17386;43.846;25.950;2023-02-28T02:38:30;102351.84;;;4.63;100.00
20630;BME280;17386;43.846;25.950;2023-02-28T02:40:48;102350.88;;;4.58;100.00
20630;BME280;17386;43.846;25.950;2023-02-28T02:43:19;102355.34;;;4.64;100.00
20630;BME280;17386;43.846;25.950;2023-02-28T02:45:52;102356.13;;;4.55;100.00
20630;BME280;17386;43.846;25.950;2023-02-28T02:48:21;102358.75;;;4.55;100.00
20630;BME280;17386;43.846;25.950;2023-02-28T02:50:54;102364.91;;;4.56;100.00
20630;BME280;17386;43.846;25.950;2023-02-28T02:53:25;102365.78;;;4.58;100.00
20630;BME280;17386;43.846;25.950;2023-02-28T02:55:53;102368.41;;;4.55;100.00
20630;BME280;17386;43.846;25.950;2023-02-28T02:58:23;102365.75;;;4.53;100.00
20630;BME280;17386;43.846;25.950;2023-02-28T03:00:56;102379.06;;;4.65;100.00
20630;BME280;17386;43.846;25.950;2023-02-28T03:03:23;102391.31;;;4.62;100.00
20630;BME280;17386;43.846;25.950;2023-02-28T03:05:56;102403.50;;;4.55;100.00
20630;BME280;17386;43.846;25.950;2023-02-28T03:08:22;102403.59;;;4.61;100.00
20630;BME280;17386;43.846;25.950;2023-02-28T03:10:52;102393.19;;;4.69;100.00
20630;BME280;17386;43.846;25.950;2023-02-28T03:22:07;102402.06;;;4.76;100.00
20630;BME280;17386;43.846;25.950;2023-02-28T03:24:54;102410.97;;;4.85;100.00
20630;BME280;17386;43.846;25.950;2023-02-28T03:30:34;102408.19;;;4.75;100.00
20630;BME280;17386;43.846;25.950;2023-02-28T03:33:18;102418.59;;;4.67;100.00
20630;BME280;17386;43.846;25.950;2023-02-28T03:35:52;102414.44;;;4.81;100.00
20630;BME280;17386;43.846;25.950;2023-02-28T03:38:33;102407.22;;;4.70;100.00
20630;BME280;17386;43.846;25.950;2023-02-28T03:41:12;102413.44;;;4.75;100.00
20630;BME280;17386;43.846;25.950;2023-02-28T03:43:43;102420.50;;;4.79;100.00
20630;BME280;17386;43.846;25.950;2023-02-28T03:46:12;102415.25;;;4.79;100.00
20630;BME280;17386;43.846;25.950;2023-02-28T03:48:44;102422.25;;;4.77;100.00
20630;BME280;17386;43.846;25.950;2023-02-28T03:51:16;102410.84;;;4.78;100.00
20630;BME280;17386;43.846;25.950;2023-02-28T03:53:46;102405.28;;;4.58;100.00
20630;BME280;17386;43.846;25.950;2023-02-28T03:56:20;102412.38;;;4.62;100.00
20630;BME280;17386;43.846;25.950;2023-02-28T03:59:13;102408.75;;;4.55;100.00
20630;BME280;17386;43.846;25.950;2023-02-28T04:01:47;102426.28;;;4.53;100.00
20630;BME280;17386;43.846;25.950;2023-02-28T04:04:14;102427.13;;;4.52;100.00
20630;BME280;17386;43.846;25.950;2023-02-28T04:06:41;102418.41;;;4.56;100.00
20630;BME280;17386;43.846;25.950;2023-02-28T04:09:10;102420.25;;;4.60;100.00
20630;BME280;17386;43.846;25.950;2023-02-28T04:11:45;102411.31;;;4.52;100.00
20630;BME280;17386;43.846;25.950;2023-02-28T04:14:13;102421.03;;;4.53;100.00
20630;BME280;17386;43.846;25.950;2023-02-28T04:16:40;102413.97;;;4.52;100.00
20630;BME280;17386;43.846;25.950;2023-02-28T04:19:08;102410.56;;;4.59;100.00
20630;BME280;17386;43.846;25.950;2023-02-28T04:21:36;102407.09;;;4.60;100.00
20630;BME280;17386;43.846;25.950;2023-02-28T04:24:04;102400.00;;;4.56;100.00
20630;BME280;17386;43.846;25.950;2023-02-28T04:26:31;102399.22;;;4.63;100.00
20630;BME280;17386;43.846;25.950;2023-02-28T04:28:57;102386.16;;;4.68;100.00
20630;BME280;17386;43.846;25.950;2023-02-28T04:31:23;102385.16;;;4.61;100.00
20630;BME280;17386;43.846;25.950;2023-02-28T04:33:48;102386.16;;;4.70;100.00
20630;BME280;17386;43.846;25.950;2023-02-28T04:36:14;102391.44;;;4.70;100.00
20630;BME280;17386;43.846;25.950;2023-02-28T04:38:40;102401.84;;;4.63;100.00
20630;BME280;17386;43.846;25.950;2023-02-28T04:41:05;102397.47;;;4.62;100.00
20630;BME280;17386;43.846;25.950;2023-02-28T04:43:31;102391.25;;;4.59;100.00
20630;BME280;17386;43.846;25.950;2023-02-28T04:46:00;102395.69;;;4.60;100.00
20630;BME280;17386;43.846;25.950;2023-02-28T04:48:31;102391.31;;;4.62;100.00
20630;BME280;17386;43.846;25.950;2023-02-28T04:51:04;102408.06;;;4.67;100.00
20630;BME280;17386;43.846;25.950;2023-02-28T04:53:30;102414.91;;;4.57;100.00
20630;BME280;17386;43.846;25.950;2023-02-28T04:55:57;102409.53;;;4.48;100.00
20630;BME280;17386;43.846;25.950;2023-02-28T04:58:22;102412.91;;;4.41;100.00
20630;BME280;17386;43.846;25.950;2023-02-28T05:00:49;102413.06;;;4.52;100.00
20630;BME280;17386;43.846;25.950;2023-02-28T05:03:15;102409.63;;;4.56;100.00
20630;BME280;17386;43.846;25.950;2023-02-28T05:05:40;102418.38;;;4.53;100.00
20630;BME280;17386;43.846;25.950;2023-02-28T05:08:05;102421.06;;;4.58;100.00
20630;BME280;17386;43.846;25.950;2023-02-28T05:10:31;102435.22;;;4.64;100.00
20630;BME280;17386;43.846;25.950;2023-02-28T05:12:57;102442.22;;;4.62;100.00
20630;BME280;17386;43.846;25.950;2023-02-28T05:15:22;102449.09;;;4.54;100.00
20630;BME280;17386;43.846;25.950;2023-02-28T05:17:47;102435.00;;;4.51;100.00
20630;BME280;17386;43.846;25.950;2023-02-28T05:20:13;102440.38;;;4.57;100.00
20630;BME280;17386;43.846;25.950;2023-02-28T05:22:39;102428.75;;;4.44;100.00
20630;BME280;17386;43.846;25.950;2023-02-28T05:25:05;102429.84;;;4.57;100.00
20630;BME280;17386;43.846;25.950;2023-02-28T05:27:31;102438.47;;;4.48;100.00
20630;BME280;17386;43.846;25.950;2023-02-28T05:29:56;102430.56;;;4.47;100.00
20630;BME280;17386;43.846;25.950;2023-02-28T05:32:22;102437.63;;;4.51;100.00
20630;BME280;17386;43.846;25.950;2023-02-28T05:34:48;102432.47;;;4.58;100.00
20630;BME280;17386;43.846;25.950;2023-02-28T05:37:14;102448.44;;;4.68;100.00
20630;BME280;17386;43.846;25.950;2023-02-28T05:39:41;102452.59;;;4.53;100.00
20630;BME280;17386;43.846;25.950;2023-02-28T05:42:07;102458.75;;;4.54;100.00
20630;BME280;17386;43.846;25.950;2023-02-28T05:44:33;102452.66;;;4.58;100.00
20630;BME280;17386;43.846;25.950;2023-02-28T05:46:58;102463.31;;;4.65;100.00
20630;BME280;17386;43.846;25.950;2023-02-28T05:49:23;102474.69;;;4.64;100.00
20630;BME280;17386;43.846;25.950;2023-02-28T05:51:49;102480.84;;;4.65;100.00
20630;BME280;17386;43.846;25.950;2023-02-28T05:54:14;102493.88;;;4.57;100.00
20630;BME280;17386;43.846;25.950;2023-02-28T05:56:40;102502.75;;;4.61;100.00
20630;BME280;17386;43.846;25.950;2023-02-28T05:59:09;102500.97;;;4.60;100.00
20630;BME280;17386;43.846;25.950;2023-02-28T06:01:37;102502.00;;;4.70;100.00
20630;BME280;17386;43.846;25.950;2023-02-28T06:04:06;102501.03;;;4.64;100.00
20630;BME280;17386;43.846;25.950;2023-02-28T06:06:32;102509.75;;;4.60;100.00
20630;BME280;17386;43.846;25.950;2023-02-28T06:08:59;102508.88;;;4.60;100.00
20630;BME280;17386;43.846;25.950;2023-02-28T06:11:26;102520.31;;;4.63;100.00
20630;BME280;17386;43.846;25.950;2023-02-28T06:14:00;102510.69;;;4.65;100.00
20630;BME280;17386;43.846;25.950;2023-02-28T06:16:27;102511.78;;;4.77;100.00
20630;BME280;17386;43.846;25.950;2023-02-28T06:18:53;102517.03;;;4.77;100.00
20630;BME280;17386;43.846;25.950;2023-02-28T06:21:21;102507.38;;;4.77;100.00
20630;BME280;17386;43.846;25.950;2023-02-28T06:23:47;102506.69;;;4.87;100.00
20630;BME280;17386;43.846;25.950;2023-02-28T06:26:12;102508.59;;;4.98;100.00
20630;BME280;17386;43.846;25.950;2023-02-28T06:28:38;102499.50;;;4.79;100.00
20630;BME280;17386;43.846;25.950;2023-02-28T06:31:11;102500.38;;;4.78;100.00
20630;BME280;17386;43.846;25.950;2023-02-28T06:33:37;102502.03;;;4.71;100.00
20630;BME280;17386;43.846;25.950;2023-02-28T06:36:03;102506.53;;;4.78;100.00
20630;BME280;17386;43.846;25.950;2023-02-28T06:38:30;102507.38;;;4.77;100.00
20630;BME280;17386;43.846;25.950;2023-02-28T06:40:57;102494.91;;;4.65;100.00
20630;BME280;17386;43.846;25.950;2023-02-28T06:43:23;102494.88;;;4.62;100.00
20630;BME280;17386;43.846;25.950;2023-02-28T06:45:48;102485.25;;;4.66;100.00
20630;BME280;17386;43.846;25.950;2023-02-28T06:48:14;102488.03;;;4.74;100.00
20630;BME280;17386;43.846;25.950;2023-02-28T06:50:40;102487.06;;;4.67;100.00
20630;BME280;17386;43.846;25.950;2023-02-28T06:53:05;102492.25;;;4.65;100.00
20630;BME280;17386;43.846;25.950;2023-02-28T06:55:31;102493.47;;;4.84;100.00
20630;BME280;17386;43.846;25.950;2023-02-28T06:57:57;102492.53;;;4.81;100.00
20630;BME280;17386;43.846;25.950;2023-02-28T07:00:22;102488.09;;;4.80;100.00
20630;BME280;17386;43.846;25.950;2023-02-28T07:02:48;102500.50;;;4.85;100.00
20630;BME280;17386;43.846;25.950;2023-02-28T07:05:13;102489.03;;;4.82;100.00
20630;BME280;17386;43.846;25.950;2023-02-28T07:07:39;102480.28;;;4.84;100.00
20630;BME280;17386;43.846;25.950;2023-02-28T07:10:12;102491.78;;;4.89;100.00
20630;BME280;17386;43.846;25.950;2023-02-28T07:12:38;102493.66;;;4.97;100.00
20630;BME280;17386;43.846;25.950;2023-02-28T07:15:04;102495.31;;;4.91;100.00
20630;BME280;17386;43.846;25.950;2023-02-28T07:17:30;102493.47;;;4.84;100.00
20630;BME280;17386;43.846;25.950;2023-02-28T07:19:55;102496.28;;;4.95;100.00
20630;BME280;17386;43.846;25.950;2023-02-28T07:22:21;102498.13;;;5.02;100.00
20630;BME280;17386;43.846;25.950;2023-02-28T07:24:46;102487.22;;;4.78;100.00
20630;BME280;17386;43.846;25.950;2023-02-28T07:27:12;102511.88;;;4.83;100.00
20630;BME280;17386;43.846;25.950;2023-02-28T07:29:37;102504.94;;;4.88;100.00
20630;BME280;17386;43.846;25.950;2023-02-28T07:32:03;102507.72;;;4.97;100.00
20630;BME280;17386;43.846;25.950;2023-02-28T07:34:28;102506.91;;;5.01;100.00
20630;BME280;17386;43.846;25.950;2023-02-28T07:36:54;102520.13;;;5.04;100.00
20630;BME280;17386;43.846;25.950;2023-02-28T07:39:21;102513.78;;;4.93;100.00
20630;BME280;17386;43.846;25.950;2023-02-28T07:41:47;102510.25;;;4.92;100.00
20630;BME280;17386;43.846;25.950;2023-02-28T07:44:13;102518.16;;;4.91;100.00
20630;BME280;17386;43.846;25.950;2023-02-28T07:46:38;102520.09;;;5.03;100.00
20630;BME280;17386;43.846;25.950;2023-02-28T07:49:05;102511.25;;;5.01;100.00
20630;BME280;17386;43.846;25.950;2023-02-28T07:51:30;102519.38;;;5.14;100.00
20630;BME280;17386;43.846;25.950;2023-02-28T07:53:57;102521.00;;;5.05;100.00
20630;BME280;17386;43.846;25.950;2023-02-28T07:56:23;102520.31;;;5.16;100.00
20630;BME280;17386;43.846;25.950;2023-02-28T07:58:48;102521.31;;;5.26;100.00
20630;BME280;17386;43.846;25.950;2023-02-28T08:01:14;102523.91;;;5.21;100.00
20630;BME280;17386;43.846;25.950;2023-02-28T08:03:40;102515.25;;;5.30;100.00
20630;BME280;17386;43.846;25.950;2023-02-28T08:06:06;102520.31;;;5.16;100.00
20630;BME280;17386;43.846;25.950;2023-02-28T08:08:32;102525.66;;;5.22;100.00
20630;BME280;17386;43.846;25.950;2023-02-28T08:10:59;102512.66;;;5.35;100.00
20630;BME280;17386;43.846;25.950;2023-02-28T08:13:25;102531.06;;;5.30;100.00
20630;BME280;17386;43.846;25.950;2023-02-28T08:15:52;102537.19;;;5.29;100.00
20630;BME280;17386;43.846;25.950;2023-02-28T08:18:19;102531.16;;;5.39;100.00
20630;BME280;17386;43.846;25.950;2023-02-28T08:20:44;102541.63;;;5.35;100.00
20630;BME280;17386;43.846;25.950;2023-02-28T08:23:10;102539.00;;;5.33;100.00
20630;BME280;17386;43.846;25.950;2023-02-28T08:25:35;102539.09;;;5.39;100.00
20630;BME280;17386;43.846;25.950;2023-02-28T08:28:00;102537.41;;;5.44;100.00
20630;BME280;17386;43.846;25.950;2023-02-28T08:30:26;102527.84;;;5.54;100.00
20630;BME280;17386;43.846;25.950;2023-02-28T08:32:51;102533.91;;;5.47;100.00
20630;BME280;17386;43.846;25.950;2023-02-28T08:35:17;102525.03;;;5.42;100.00
20630;BME280;17386;43.846;25.950;2023-02-28T08:37:42;102525.22;;;5.54;100.00
20630;BME280;17386;43.846;25.950;2023-02-28T08:40:08;102532.41;;;5.66;100.00
20630;BME280;17386;43.846;25.950;2023-02-28T08:42:34;102542.19;;;5.74;100.00
20630;BME280;17386;43.846;25.950;2023-02-28T08:44:59;102542.22;;;5.76;100.00
20630;BME280;17386;43.846;25.950;2023-02-28T08:47:25;102535.16;;;5.75;100.00
20630;BME280;17386;43.846;25.950;2023-02-28T08:49:50;102527.31;;;5.78;100.00
20630;BME280;17386;43.846;25.950;2023-02-28T08:52:15;102526.38;;;5.74;100.00
20630;BME280;17386;43.846;25.950;2023-02-28T08:54:41;102516.59;;;5.67;100.00
20630;BME280;17386;43.846;25.950;2023-02-28T08:57:06;102521.97;;;5.75;100.00
20630;BME280;17386;43.846;25.950;2023-02-28T08:59:32;102528.38;;;5.91;100.00
20630;BME280;17386;43.846;25.950;2023-02-28T09:01:57;102529.19;;;5.90;100.00
20630;BME280;17386;43.846;25.950;2023-02-28T09:04:23;102525.56;;;5.79;100.00
20630;BME280;17386;43.846;25.950;2023-02-28T09:06:48;102528.03;;;5.65;100.00
20630;BME280;17386;43.846;25.950;2023-02-28T09:09:14;102521.00;;;5.68;100.00
20630;BME280;17386;43.846;25.950;2023-02-28T09:11:40;102533.47;;;5.80;100.00
20630;BME280;17386;43.846;25.950;2023-02-28T09:14:05;102524.63;;;5.75;100.00
20630;BME280;17386;43.846;25.950;2023-02-28T09:16:32;102521.22;;;5.84;100.00
20630;BME280;17386;43.846;25.950;2023-02-28T09:18:57;102531.78;;;5.85;100.00
20630;BME280;17386;43.846;25.950;2023-02-28T09:21:23;102524.78;;;5.87;100.00
20630;BME280;17386;43.846;25.950;2023-02-28T09:23:49;102532.63;;;5.83;100.00
20630;BME280;17386;43.846;25.950;2023-02-28T09:26:23;102533.69;;;5.92;100.00
20630;BME280;17386;43.846;25.950;2023-02-28T09:28:50;102521.44;;;5.99;100.00
20630;BME280;17386;43.846;25.950;2023-02-28T09:31:22;102522.31;;;5.98;100.00
20630;BME280;17386;43.846;25.950;2023-02-28T09:33:49;102535.53;;;6.01;100.00
20630;BME280;17386;43.846;25.950;2023-02-28T09:36:15;102521.38;;;5.96;100.00
20630;BME280;17386;43.846;25.950;2023-02-28T09:38:41;102527.63;;;6.01;100.00
20630;BME280;17386;43.846;25.950;2023-02-28T09:41:14;102526.72;;;5.99;100.00
20630;BME280;17386;43.846;25.950;2023-02-28T09:43:44;102531.16;;;6.03;100.00
20630;BME280;17386;43.846;25.950;2023-02-28T09:46:29;102524.09;;;6.02;100.00
20630;BME280;17386;43.846;25.950;2023-02-28T09:49:02;102525.13;;;6.15;100.00
20630;BME280;17386;43.846;25.950;2023-02-28T09:53:55;102518.19;;;6.23;100.00
20630;BME280;17386;43.846;25.950;2023-02-28T09:56:30;102518.22;;;6.26;100.00
20630;BME280;17386;43.846;25.950;2023-02-28T10:04:52;102515.72;;;6.40;100.00
20630;BME280;17386;43.846;25.950;2023-02-28T10:10:24;102519.94;;;6.24;100.00
20630;BME280;17386;43.846;25.950;2023-02-28T10:12:56;102520.00;;;6.30;100.00
20630;BME280;17386;43.846;25.950;2023-02-28T10:15:25;102516.59;;;6.40;100.00
20630;BME280;17386;43.846;25.950;2023-02-28T10:18:03;102524.69;;;6.58;100.00
20630;BME280;17386;43.846;25.950;2023-02-28T10:20:32;102532.66;;;6.63;100.00
20630;BME280;17386;43.846;25.950;2023-02-28T10:25:35;102518.38;;;6.43;100.00
20630;BME280;17386;43.846;25.950;2023-02-28T10:28:10;102511.19;;;6.29;100.00
20630;BME280;17386;43.846;25.950;2023-02-28T10:30:42;102510.41;;;6.37;100.00
20630;BME280;17386;43.846;25.950;2023-02-28T10:33:32;102506.81;;;6.28;100.00
20630;BME280;17386;43.846;25.950;2023-02-28T10:36:00;102508.69;;;6.40;100.00
20630;BME280;17386;43.846;25.950;2023-02-28T10:38:29;102508.69;;;6.40;100.00
20630;BME280;17386;43.846;25.950;2023-02-28T10:41:30;102514.94;;;6.50;100.00
20630;BME280;17386;43.846;25.950;2023-02-28T10:44:28;102504.22;;;6.35;100.00
20630;BME280;17386;43.846;25.950;2023-02-28T10:46:54;102506.94;;;6.44;100.00
20630;BME280;17386;43.846;25.950;2023-02-28T10:49:23;102499.75;;;6.27;100.00
20630;BME280;17386;43.846;25.950;2023-02-28T10:51:54;102500.72;;;6.36;100.00
20630;BME280;17386;43.846;25.950;2023-02-28T10:54:30;102492.91;;;6.49;100.00
20630;BME280;17386;43.846;25.950;2023-02-28T10:57:19;102496.56;;;6.62;100.00
20630;BME280;17386;43.846;25.950;2023-02-28T10:59:45;102492.88;;;6.45;100.00
20630;BME280;17386;43.846;25.950;2023-02-28T11:02:36;102480.59;;;6.45;100.00
20630;BME280;17386;43.846;25.950;2023-02-28T11:05:04;102492.94;;;6.51;100.00
20630;BME280;17386;43.846;25.950;2023-02-28T11:07:59;102483.91;;;6.27;100.00
20630;BME280;17386;43.846;25.950;2023-02-28T11:10:30;102488.25;;;6.24;100.00
20630;BME280;17386;43.846;25.950;2023-02-28T11:12:58;102487.50;;;6.33;100.00
20630;BME280;17386;43.846;25.950;2023-02-28T11:15:34;102482.16;;;6.26;100.00
20630;BME280;17386;43.846;25.950;2023-02-28T11:18:02;102488.38;;;6.35;100.00
20630;BME280;17386;43.846;25.950;2023-02-28T11:20:32;102475.03;;;6.19;100.00
20630;BME280;17386;43.846;25.950;2023-02-28T11:22:58;102482.16;;;6.29;100.00
20630;BME280;17386;43.846;25.950;2023-02-28T11:25:35;102478.59;;;6.24;100.00
20630;BME280;17386;43.846;25.950;2023-02-28T11:28:04;102476.72;;;6.11;100.00
20630;BME280;17386;43.846;25.950;2023-02-28T11:30:39;102462.63;;;6.11;100.00
20630;BME280;17386;43.846;25.950;2023-02-28T11:35:51;102449.53;;;6.18;100.00
20630;BME280;17386;43.846;25.950;2023-02-28T11:38:16;102445.16;;;6.20;100.00
20630;BME280;17386;43.846;25.950;2023-02-28T11:48:46;102439.72;;;6.07;100.00
20630;BME280;17386;43.846;25.950;2023-02-28T11:51:25;102431.81;;;6.07;100.00
20630;BME280;17386;43.846;25.950;2023-02-28T11:56:44;102433.66;;;6.17;100.00
20630;BME280;17386;43.846;25.950;2023-02-28T12:05:01;102433.66;;;6.15;100.00
20630;BME280;17386;43.846;25.950;2023-02-28T12:10:21;102437.97;;;6.07;100.00
20630;BME280;17386;43.846;25.950;2023-02-28T12:20:54;102436.28;;;6.12;100.00
20630;BME280;17386;43.846;25.950;2023-02-28T12:29:12;102444.16;;;6.11;100.00
20630;BME280;17386;43.846;25.950;2023-02-28T12:31:45;102441.41;;;6.00;100.00
20630;BME280;17386;43.846;25.950;2023-02-28T12:34:17;102415.75;;;5.88;100.00
20630;BME280;17386;43.846;25.950;2023-02-28T12:36:46;102439.66;;;6.02;100.00
20630;BME280;17386;43.846;25.950;2023-02-28T12:39:23;102435.47;;;6.18;100.00
20630;BME280;17386;43.846;25.950;2023-02-28T12:42:03;102431.94;;;6.19;100.00
20630;BME280;17386;43.846;25.950;2023-02-28T12:44:37;102439.84;;;6.19;100.00
20630;BME280;17386;43.846;25.950;2023-02-28T12:47:14;102431.88;;;6.16;100.00
20630;BME280;17386;43.846;25.950;2023-02-28T12:49:46;102429.34;;;6.25;100.00
20630;BME280;17386;43.846;25.950;2023-02-28T12:52:22;102431.06;;;6.20;100.00
20630;BME280;17386;43.846;25.950;2023-02-28T12:57:26;102435.41;;;6.15;100.00
20630;BME280;17386;43.846;25.950;2023-02-28T12:59:59;102425.59;;;6.01;100.00
20630;BME280;17386;43.846;25.950;2023-02-28T13:10:47;102417.06;;;6.28;100.00
20630;BME280;17386;43.846;25.950;2023-02-28T13:13:30;102419.75;;;6.32;100.00
20630;BME280;17386;43.846;25.950;2023-02-28T13:18:35;102407.44;;;6.32;100.00
20630;BME280;17386;43.846;25.950;2023-02-28T13:21:06;102410.09;;;6.37;100.00
20630;BME280;17386;43.846;25.950;2023-02-28T13:26:06;102405.78;;;6.48;100.00
20630;BME280;17386;43.846;25.950;2023-02-28T13:31:16;102405.84;;;6.54;100.00
20630;BME280;17386;43.846;25.950;2023-02-28T13:38:50;102404.19;;;6.70;100.00
20630;BME280;17386;43.846;25.950;2023-02-28T14:06:21;102405.06;;;6.67;100.00
20630;BME280;17386;43.846;25.950;2023-02-28T14:11:29;102405.91;;;6.63;100.00
20630;BME280;17386;43.846;25.950;2023-02-28T14:13:56;102406.75;;;6.59;100.00
20630;BME280;17386;43.846;25.950;2023-02-28T14:16:28;102397.09;;;6.60;100.00
20630;BME280;17386;43.846;25.950;2023-02-28T14:19:24;102395.38;;;6.72;100.00
20630;BME280;17386;43.846;25.950;2023-02-28T14:32:59;102403.34;;;6.75;100.00
20630;BME280;17386;43.846;25.950;2023-02-28T14:38:23;102396.38;;;6.87;100.00
20630;BME280;17386;43.846;25.950;2023-02-28T14:40:52;102401.63;;;6.83;100.00
20630;BME280;17386;43.846;25.950;2023-02-28T14:43:23;102402.59;;;6.93;100.00
20630;BME280;17386;43.846;25.950;2023-02-28T14:45:59;102405.28;;;7.01;100.00
20630;BME280;17386;43.846;25.950;2023-02-28T14:48:25;102393.75;;;6.91;100.00
20630;BME280;17386;43.846;25.950;2023-02-28T14:50:57;102391.09;;;6.93;100.00
20630;BME280;17386;43.846;25.950;2023-02-28T14:53:27;102399.94;;;6.93;100.00
20630;BME280;17386;43.846;25.950;2023-02-28T14:55:53;102401.66;;;6.93;100.00
20630;BME280;17386;43.846;25.950;2023-02-28T14:58:30;102406.97;;;6.93;100.00
20630;BME280;17386;43.846;25.950;2023-02-28T15:01:01;102411.31;;;6.84;100.00
20630;BME280;17386;43.846;25.950;2023-02-28T15:03:36;102406.97;;;6.93;100.00
20630;BME280;17386;43.846;25.950;2023-02-28T15:06:13;102403.47;;;6.95;100.00
20630;BME280;17386;43.846;25.950;2023-02-28T15:08:38;102403.38;;;6.86;100.00
20630;BME280;17386;43.846;25.950;2023-02-28T15:11:07;102410.47;;;6.92;100.00
20630;BME280;17386;43.846;25.950;2023-02-28T15:13:42;102401.66;;;6.93;100.00
20630;BME280;17386;43.846;25.950;2023-02-28T15:16:21;102416.75;;;7.09;100.00